Time;durP1;ratioP1;P1;durP2;ratioP2;P2;SDS_P1;SDS_P2;PMS_P1;PMS_P2;Temp;Humidity;BMP_temperature;BMP_pressure;BME280_temperature;BME280_humidity;BME280_pressure;Samples;Min_cycle;Max_cycle;Signal;HPM_P1;HPM_P2
2023/06/15 00:00:59;;;;;;;0.60;0.50;;;;;;;19.61;54.17;101274.78;4990967;28;20083;-63
2023/06/15 00:03:25;;;;;;;0.50;0.50;;;;;;;19.57;54.42;101279.50;4964238;28;20042;-63
2023/06/15 00:05:51;;;;;;;1.17;0.60;;;;;;;19.52;54.80;101271.72;4967267;28;20108;-63
2023/06/15 00:08:17;;;;;;;1.20;0.50;;;;;;;19.48;55.39;101281.91;4974759;28;20050;-65
2023/06/15 00:10:43;;;;;;;1.23;0.60;;;;;;;19.51;55.51;101272.88;4984135;28;20042;-63
2023/06/15 00:13:08;;;;;;;1.25;0.68;;;;;;;19.62;55.54;101281.03;4987809;28;20042;-63
2023/06/15 00:15:34;;;;;;;0.77;0.45;;;;;;;19.59;55.97;101279.88;4976157;28;20630;-64
2023/06/15 00:17:59;;;;;;;1.05;0.75;;;;;;;19.47;56.34;101280.31;4980550;28;20478;-64
2023/06/15 00:20:28;;;;;;;1.33;0.90;;;;;;;19.50;56.49;101274.09;4974035;28;20569;-64
2023/06/15 00:22:55;;;;;;;1.17;0.77;;;;;;;19.53;56.73;101277.97;4986273;28;20034;-63
2023/06/15 00:25:21;;;;;;;0.98;0.60;;;;;;;19.46;57.44;101276.06;4983078;28;20046;-64
2023/06/15 00:27:47;;;;;;;0.70;0.70;;;;;;;19.49;57.42;101277.97;4983067;28;20120;-64
2023/06/15 00:30:12;;;;;;;1.02;0.60;;;;;;;19.49;57.86;101280.72;4973422;28;21582;-63
2023/06/15 00:32:38;;;;;;;0.77;0.60;;;;;;;19.43;57.98;101287.00;4997851;28;20128;-63
2023/06/15 00:35:04;;;;;;;1.88;0.77;;;;;;;19.37;58.56;101281.19;5010110;28;20406;-63
2023/06/15 00:37:30;;;;;;;1.50;0.80;;;;;;;19.31;58.98;101282.75;5010050;28;20063;-64
2023/06/15 00:39:55;;;;;;;0.88;0.50;;;;;;;19.31;59.27;101276.50;5018025;28;20495;-64
2023/06/15 00:42:21;;;;;;;1.52;0.77;;;;;;;19.31;59.65;101271.81;5001661;28;20033;-66
2023/06/15 00:44:46;;;;;;;1.05;0.85;;;;;;;19.26;60.14;101277.69;5031066;28;20566;-64
2023/06/15 00:47:12;;;;;;;1.08;0.60;;;;;;;19.30;60.31;101277.69;5022640;28;20108;-64
2023/06/15 00:49:38;;;;;;;1.15;0.65;;;;;;;19.24;61.17;101276.53;5014278;28;20026;-63
2023/06/15 00:52:04;;;;;;;1.35;0.70;;;;;;;19.21;61.13;101278.13;5025835;28;20075;-64
2023/06/15 00:54:30;;;;;;;1.35;0.50;;;;;;;19.26;61.13;101272.22;5007584;28;20068;-63
2023/06/15 00:56:55;;;;;;;0.90;0.50;;;;;;;19.15;61.67;101279.69;5021987;28;20053;-63
2023/06/15 00:59:22;;;;;;;1.42;0.60;;;;;;;19.16;61.84;101281.28;5005317;28;20791;-64
2023/06/15 01:01:54;;;;;;;3.25;0.68;;;;;;;19.05;61.92;101277.03;5005488;28;20059;-64
2023/06/15 01:04:24;;;;;;;0.65;0.55;;;;;;;19.01;62.19;101279.75;5023651;28;20038;-65
2023/06/15 01:06:52;;;;;;;0.90;0.65;;;;;;;18.99;62.39;101275.88;5023485;28;20052;-67
2023/06/15 01:09:21;;;;;;;1.08;0.43;;;;;;;18.97;62.28;101289.91;5006903;28;20084;-65
2023/06/15 01:11:55;;;;;;;1.08;0.50;;;;;;;18.91;62.62;101284.06;5029561;28;20041;-64
2023/06/15 01:14:25;;;;;;;2.20;0.68;;;;;;;18.97;62.55;101286.41;5038226;28;20039;-64
2023/06/15 01:17:16;;;;;;;0.80;0.60;;;;;;;18.91;62.65;101283.31;5020066;28;20041;-63
2023/06/15 01:20:04;;;;;;;2.70;0.65;;;;;;;18.79;63.13;101281.03;4942823;28;20051;-65
2023/06/15 01:22:55;;;;;;;1.02;0.77;;;;;;;18.80;63.33;101280.63;4950747;28;20388;-64
2023/06/15 01:25:45;;;;;;;1.27;0.80;;;;;;;18.70;63.45;101272.44;4932858;29;20044;-65
2023/06/15 01:28:15;;;;;;;0.97;0.60;;;;;;;18.65;63.21;101278.31;4948137;29;20067;-63
2023/06/15 01:30:47;;;;;;;1.55;0.60;;;;;;;18.67;63.60;101281.44;4939173;28;20596;-63
2023/06/15 01:33:13;;;;;;;1.25;0.68;;;;;;;18.57;63.65;101268.59;4946174;28;20118;-64
2023/06/15 01:35:38;;;;;;;0.82;0.68;;;;;;;18.48;63.77;101269.00;4935276;28;20518;-63
2023/06/15 01:38:08;;;;;;;0.75;0.57;;;;;;;18.34;64.68;101284.56;4938608;29;20088;-63
2023/06/15 01:40:38;;;;;;;1.65;0.80;;;;;;;18.34;64.28;101268.22;4932413;28;20059;-65
2023/06/15 01:43:11;;;;;;;1.20;0.90;;;;;;;18.25;64.37;101279.53;4929290;29;20129;-63
2023/06/15 01:45:38;;;;;;;0.80;0.60;;;;;;;18.30;64.54;101261.97;4936945;29;20079;-65
2023/06/15 01:48:05;;;;;;;5.35;0.70;;;;;;;18.32;64.26;101274.06;4917836;29;20085;-64
2023/06/15 01:50:30;;;;;;;0.73;0.60;;;;;;;18.39;64.49;101267.84;4945449;28;20432;-65
2023/06/15 01:52:58;;;;;;;1.30;0.75;;;;;;;18.23;64.79;101268.25;4939079;29;20039;-63
2023/06/15 01:55:24;;;;;;;1.67;0.70;;;;;;;18.29;64.38;101265.91;4933565;28;20057;-64
2023/06/15 01:57:53;;;;;;;0.82;0.70;;;;;;;18.28;64.06;101267.06;5001165;28;20045;-64
2023/06/15 02:00:19;;;;;;;1.17;0.85;;;;;;;18.28;63.83;101262.38;5019894;28;20061;-64
2023/06/15 02:02:44;;;;;;;0.75;0.70;;;;;;;18.34;63.23;101265.50;5010095;28;20053;-64
2023/06/15 02:05:10;;;;;;;1.33;0.70;;;;;;;18.36;61.95;101255.75;5012478;28;20562;-64
2023/06/15 02:07:36;;;;;;;0.40;0.40;;;;;;;18.04;63.06;101266.69;5028699;28;20494;-64
2023/06/15 02:10:04;;;;;;;1.05;0.68;;;;;;;18.17;62.54;101258.91;5017217;28;20037;-64
2023/06/15 02:12:30;;;;;;;3.33;0.80;;;;;;;18.18;62.65;101252.25;5025409;28;20065;-64
2023/06/15 02:14:57;;;;;;;0.90;0.57;;;;;;;18.21;62.46;101254.22;5006579;28;20068;-64
2023/06/15 02:17:30;;;;;;;1.08;0.45;;;;;;;18.19;62.29;101270.19;4992230;28;20036;-64
2023/06/15 02:19:56;;;;;;;1.42;0.70;;;;;;;18.28;61.82;101256.13;5023581;28;20057;-63
2023/06/15 02:22:22;;;;;;;0.90;0.73;;;;;;;18.18;61.79;101254.19;5021690;28;20045;-64
2023/06/15 02:24:47;;;;;;;0.98;0.32;;;;;;;18.15;62.18;101257.72;5021830;28;20117;-63
2023/06/15 02:27:13;;;;;;;0.73;0.70;;;;;;;18.09;62.27;101256.56;5008361;28;20026;-64
2023/06/15 02:29:40;;;;;;;1.60;0.75;;;;;;;18.07;62.08;101258.88;5009467;28;20124;-64
2023/06/15 02:32:06;;;;;;;0.70;0.60;;;;;;;18.06;61.96;101258.09;5002570;28;20121;-64
2023/06/15 02:34:32;;;;;;;0.77;0.60;;;;;;;18.01;62.17;101259.28;5036668;28;20645;-63
2023/06/15 02:36:58;;;;;;;1.08;0.60;;;;;;;18.02;62.00;101255.38;5006750;28;20033;-65
2023/06/15 02:39:24;;;;;;;0.60;0.57;;;;;;;17.99;61.90;101256.19;5011006;28;20112;-64
2023/06/15 02:41:50;;;;;;;1.15;0.68;;;;;;;17.92;62.22;101252.69;5017883;28;20163;-64
2023/06/15 02:44:16;;;;;;;0.52;0.52;;;;;;;17.78;62.50;101258.13;5032045;28;20026;-65
2023/06/15 02:46:42;;;;;;;1.65;0.60;;;;;;;17.66;62.52;101251.09;5011786;28;20033;-65
2023/06/15 02:49:08;;;;;;;0.47;0.43;;;;;;;17.60;63.52;101251.84;4991597;28;20022;-63
2023/06/15 02:51:37;;;;;;;0.85;0.60;;;;;;;17.57;63.80;101255.38;5004900;28;20030;-63
2023/06/15 02:54:06;;;;;;;1.23;0.65;;;;;;;17.53;63.51;101255.38;5011633;28;20087;-63
2023/06/15 02:56:35;;;;;;;0.93;0.40;;;;;;;17.51;63.95;101257.69;5010901;28;20033;-64
2023/06/15 02:59:01;;;;;;;1.90;0.77;;;;;;;17.47;63.98;101258.81;5025956;28;20025;-63
2023/06/15 03:01:42;;;;;;;1.52;0.52;;;;;;;17.48;63.91;101260.38;5013781;28;20048;-63
2023/06/15 03:04:14;;;;;;;1.00;0.60;;;;;;;17.38;64.60;101253.72;5012329;28;20556;-62
2023/06/15 03:06:44;;;;;;;0.93;0.73;;;;;;;17.34;64.76;101258.41;5007233;28;20037;-63
2023/06/15 03:09:14;;;;;;;1.33;0.90;;;;;;;17.31;65.35;101261.09;5004227;28;20029;-63
2023/06/15 03:11:39;;;;;;;0.52;0.50;;;;;;;17.26;65.28;101253.31;5019799;28;20030;-63
2023/06/15 03:14:05;;;;;;;1.35;0.90;;;;;;;17.17;65.47;101259.91;5001681;28;20040;-63
2023/06/15 03:16:46;;;;;;;1.30;0.70;;;;;;;17.13;65.84;101263.78;5005202;28;20037;-63
2023/06/15 03:19:18;;;;;;;1.42;0.68;;;;;;;17.16;65.87;101254.84;4994664;28;20136;-63
2023/06/15 03:21:46;;;;;;;1.13;0.55;;;;;;;17.14;66.25;101266.13;5002875;28;20038;-63
2023/06/15 03:24:13;;;;;;;1.20;0.75;;;;;;;17.19;66.66;101270.41;5002857;28;20017;-65
2023/06/15 03:26:41;;;;;;;0.50;0.43;;;;;;;17.12;66.40;101260.28;5008822;28;20037;-65
2023/06/15 03:29:08;;;;;;;0.95;0.60;;;;;;;17.12;66.77;101254.84;4997036;28;20466;-66
2023/06/15 03:31:40;;;;;;;0.88;0.57;;;;;;;17.07;67.15;101265.31;5011464;28;20116;-65
2023/06/15 03:34:10;;;;;;;1.73;0.80;;;;;;;17.07;67.40;101259.88;4996140;28;20032;-64
2023/06/15 03:36:36;;;;;;;1.15;0.82;;;;;;;17.05;67.49;101257.53;5013807;28;20112;-65
2023/06/15 03:39:03;;;;;;;0.82;0.60;;;;;;;17.03;67.53;101259.09;5017263;28;20158;-65
2023/06/15 03:41:30;;;;;;;1.35;0.75;;;;;;;16.95;68.22;101254.78;5017890;28;20047;-64
2023/06/15 03:43:56;;;;;;;0.80;0.57;;;;;;;16.98;68.26;101262.16;4992623;28;20692;-65
2023/06/15 03:46:22;;;;;;;1.15;0.80;;;;;;;16.97;68.88;101263.34;4978905;28;20053;-66
2023/06/15 03:48:49;;;;;;;3.00;0.90;;;;;;;16.90;69.16;101255.91;5020833;28;20036;-64
2023/06/15 03:51:14;;;;;;;1.98;0.80;;;;;;;16.81;69.02;101252.00;5019053;28;20087;-65
2023/06/15 03:53:42;;;;;;;0.63;0.60;;;;;;;16.85;69.82;101252.78;5013096;28;20026;-64
2023/06/15 03:56:07;;;;;;;1.95;0.70;;;;;;;16.92;69.80;101250.09;5029334;28;20029;-66
2023/06/15 03:58:33;;;;;;;0.50;0.45;;;;;;;16.85;70.39;101250.84;5003745;28;20364;-64
2023/06/15 04:00:58;;;;;;;1.35;0.85;;;;;;;16.80;70.34;101258.59;5013129;28;20120;-65
2023/06/15 04:03:24;;;;;;;0.93;0.75;;;;;;;16.93;70.63;101246.22;5024947;28;20597;-65
2023/06/15 04:05:50;;;;;;;0.95;0.65;;;;;;;16.83;71.22;101252.38;5015299;28;20528;-65
2023/06/15 04:08:15;;;;;;;0.80;0.65;;;;;;;16.92;71.39;101253.59;4999664;28;20421;-64
2023/06/15 04:10:41;;;;;;;0.98;0.52;;;;;;;16.77;71.85;101254.69;5013358;28;20049;-65
2023/06/15 04:13:06;;;;;;;1.52;0.75;;;;;;;16.85;71.93;101258.22;4996760;28;20033;-63
2023/06/15 04:15:32;;;;;;;1.42;0.90;;;;;;;17.01;72.43;101248.56;5035096;28;20103;-65
2023/06/15 04:18:00;;;;;;;1.42;0.70;;;;;;;17.11;72.28;101255.25;5018734;28;20486;-65
2023/06/15 04:20:30;;;;;;;2.72;1.23;;;;;;;17.21;71.65;101248.25;5013451;28;20021;-65
2023/06/15 04:22:56;;;;;;;2.20;0.90;;;;;;;17.22;72.28;101258.75;5012831;28;20040;-65
2023/06/15 04:25:23;;;;;;;1.98;1.00;;;;;;;17.26;72.35;101251.38;5016086;28;20029;-66
2023/06/15 04:27:49;;;;;;;1.63;0.80;;;;;;;17.35;72.53;101265.41;5010237;28;20367;-64
2023/06/15 04:30:18;;;;;;;1.50;0.90;;;;;;;17.35;72.82;101257.25;5010680;28;20496;-65
2023/06/15 04:32:44;;;;;;;1.70;0.73;;;;;;;17.43;72.52;101263.47;5014757;28;20363;-65
2023/06/15 04:35:16;;;;;;;1.05;0.77;;;;;;;17.51;73.00;101252.25;5022127;28;20062;-65
2023/06/15 04:37:42;;;;;;;0.70;0.50;;;;;;;17.49;73.51;101257.31;5011549;28;20040;-65
2023/06/15 04:40:10;;;;;;;1.73;0.77;;;;;;;17.54;73.83;101259.63;5011193;28;20040;-66
2023/06/15 04:42:37;;;;;;;0.60;0.60;;;;;;;17.66;73.60;101259.28;5009143;28;20124;-65
2023/06/15 04:45:07;;;;;;;1.20;0.85;;;;;;;17.68;73.80;101259.66;5015073;28;20047;-65
2023/06/15 04:47:36;;;;;;;1.52;1.00;;;;;;;17.79;73.15;101256.94;5011874;28;20561;-65
2023/06/15 04:50:03;;;;;;;2.90;0.75;;;;;;;17.83;73.79;101257.72;5010880;28;20081;-65
2023/06/15 04:52:29;;;;;;;1.02;0.82;;;;;;;17.85;73.27;101269.00;5024321;28;20033;-65
2023/06/15 04:54:55;;;;;;;0.75;0.57;;;;;;;17.94;73.12;101266.69;5002440;28;20030;-65
2023/06/15 04:57:20;;;;;;;2.63;0.95;;;;;;;18.03;73.01;101270.59;5014349;28;20044;-65
2023/06/15 04:59:49;;;;;;;3.28;1.23;;;;;;;18.15;72.46;101271.34;5011820;28;20025;-65
2023/06/15 05:02:14;;;;;;;1.25;0.77;;;;;;;18.20;72.20;101268.22;5007079;28;20025;-65
2023/06/15 05:04:40;;;;;;;1.08;0.68;;;;;;;18.30;72.03;101268.22;5022429;28;20048;-65
2023/06/15 05:07:06;;;;;;;1.98;0.90;;;;;;;18.37;72.32;101262.75;4991790;28;20033;-65
2023/06/15 05:09:36;;;;;;;1.30;0.70;;;;;;;18.50;71.74;101265.88;5015646;28;20112;-64
2023/06/15 05:12:08;;;;;;;1.15;0.85;;;;;;;18.59;71.34;101268.97;5014076;28;20116;-65
2023/06/15 05:14:33;;;;;;;1.20;0.75;;;;;;;19.01;70.40;101266.09;5001472;28;20088;-65
2023/06/15 05:17:03;;;;;;;0.90;0.90;;;;;;;19.50;69.14;101265.88;5012460;28;20034;-64
2023/06/15 05:19:30;;;;;;;0.73;0.70;;;;;;;19.99;65.06;101269.44;5001649;28;20021;-65
2023/06/15 05:22:01;;;;;;;0.73;0.60;;;;;;;20.53;61.71;101271.31;5009072;28;20037;-65
2023/06/15 05:24:28;;;;;;;0.60;0.60;;;;;;;21.00;59.35;101261.38;5010493;28;20033;-65
2023/06/15 05:26:54;;;;;;;1.48;0.63;;;;;;;21.54;58.22;101274.72;5019993;28;20029;-66
2023/06/15 05:29:20;;;;;;;2.92;0.93;;;;;;;21.67;56.37;101274.16;5025409;28;20041;-65
2023/06/15 05:31:46;;;;;;;1.50;1.00;;;;;;;21.94;55.73;101277.69;5009291;28;20037;-66
2023/06/15 05:34:14;;;;;;;1.10;0.80;;;;;;;22.25;54.04;101276.38;4998083;28;20025;-65
2023/06/15 05:36:43;;;;;;;1.30;0.77;;;;;;;22.50;52.87;101271.22;5028174;28;20040;-65
2023/06/15 05:39:09;;;;;;;1.45;0.80;;;;;;;22.77;53.46;101280.13;5008185;28;20090;-64
2023/06/15 05:41:35;;;;;;;1.10;0.60;;;;;;;22.74;52.09;101275.50;4991293;28;20506;-64
2023/06/15 05:44:01;;;;;;;2.42;0.70;;;;;;;22.82;52.15;101278.88;5007283;28;20025;-66
2023/06/15 05:46:30;;;;;;;1.33;0.63;;;;;;;22.96;51.99;101282.09;5011498;28;20152;-64
2023/06/15 05:48:57;;;;;;;1.48;0.73;;;;;;;23.17;52.08;101278.91;5007254;28;20387;-65
2023/06/15 05:51:22;;;;;;;1.23;0.98;;;;;;;23.46;50.89;101289.34;5008323;28;20026;-66
2023/06/15 05:53:48;;;;;;;1.13;0.77;;;;;;;23.49;50.75;101280.22;5009671;28;20037;-66
2023/06/15 05:56:13;;;;;;;1.05;0.75;;;;;;;23.54;50.53;101279.72;5043579;28;20041;-64
2023/06/15 05:58:39;;;;;;;1.50;0.90;;;;;;;23.53;50.89;101281.69;5030306;28;20033;-65
2023/06/15 06:01:05;;;;;;;2.13;0.88;;;;;;;23.53;49.41;101286.41;5024116;28;20037;-65
2023/06/15 06:03:31;;;;;;;2.85;0.80;;;;;;;23.72;49.75;101286.34;5021698;28;20100;-65
2023/06/15 06:05:56;;;;;;;1.40;0.65;;;;;;;23.71;49.61;101286.78;5015254;28;20029;-65
2023/06/15 06:08:23;;;;;;;0.65;0.52;;;;;;;23.72;49.21;101278.09;5015179;28;20018;-64
2023/06/15 06:10:49;;;;;;;0.70;0.55;;;;;;;23.86;48.92;101280.50;5032215;28;20091;-65
2023/06/15 06:13:32;;;;;;;0.70;0.70;;;;;;;24.02;48.42;101286.03;5024014;28;20098;-64
2023/06/15 06:15:58;;;;;;;2.45;0.80;;;;;;;24.14;48.67;101292.81;5025471;28;20509;-64
2023/06/15 06:18:27;;;;;;;1.20;0.50;;;;;;;24.17;48.46;101278.19;5008237;28;20025;-65
2023/06/15 06:20:52;;;;;;;0.77;0.77;;;;;;;24.21;47.64;101280.84;5018499;28;20041;-65
2023/06/15 06:23:17;;;;;;;1.05;0.60;;;;;;;24.39;47.47;101281.94;5036679;28;20022;-65
2023/06/15 06:25:43;;;;;;;0.63;0.50;;;;;;;24.53;47.31;101278.81;5007535;28;20087;-65
2023/06/15 06:28:09;;;;;;;1.38;0.50;;;;;;;24.64;47.30;101279.28;4994607;28;20401;-65
2023/06/15 06:30:34;;;;;;;0.77;0.75;;;;;;;24.72;46.98;101277.91;5020107;28;20029;-65
2023/06/15 06:33:02;;;;;;;0.93;0.60;;;;;;;24.80;46.21;101278.47;5024861;28;20452;-63
2023/06/15 06:35:30;;;;;;;0.60;0.50;;;;;;;24.94;45.76;101278.88;5016890;28;20022;-64
2023/06/15 06:37:55;;;;;;;1.05;0.77;;;;;;;24.96;46.19;101281.97;5018922;28;20077;-66
2023/06/15 06:40:21;;;;;;;1.38;0.70;;;;;;;25.08;46.21;101279.66;5036163;28;20038;-65
2023/06/15 06:42:46;;;;;;;0.70;0.50;;;;;;;25.21;46.01;101280.44;5037515;28;20401;-65
2023/06/15 06:45:15;;;;;;;0.60;0.40;;;;;;;25.09;46.59;101281.97;5038844;28;20116;-65
2023/06/15 06:47:41;;;;;;;1.15;0.63;;;;;;;24.94;44.80;101278.09;5030435;28;20037;-66
2023/06/15 06:50:07;;;;;;;1.15;0.70;;;;;;;24.76;45.57;101277.81;5025259;28;20383;-64
2023/06/15 06:52:32;;;;;;;0.60;0.47;;;;;;;24.72;46.63;101280.66;5037040;28;20029;-66
2023/06/15 06:54:57;;;;;;;1.48;0.70;;;;;;;24.77;46.99;101274.63;5021397;28;20417;-66
2023/06/15 06:57:23;;;;;;;1.27;0.80;;;;;;;24.97;46.63;101272.47;5029827;28;20075;-65
2023/06/15 06:59:50;;;;;;;1.92;0.75;;;;;;;25.12;46.34;101272.06;5030595;28;20049;-66
2023/06/15 07:02:16;;;;;;;1.42;0.77;;;;;;;25.25;46.15;101270.09;5026236;28;20030;-63
2023/06/15 07:04:41;;;;;;;0.47;0.38;;;;;;;25.49;46.18;101268.59;5038182;28;20569;-65
2023/06/15 07:07:06;;;;;;;1.42;0.63;;;;;;;25.65;46.06;101279.50;5035550;28;20037;-66
2023/06/15 07:09:32;;;;;;;1.48;0.52;;;;;;;25.80;44.45;101275.84;5014515;28;20026;-66
2023/06/15 07:11:58;;;;;;;3.25;0.60;;;;;;;25.95;44.09;101278.91;5016749;28;20063;-65
2023/06/15 07:14:23;;;;;;;0.88;0.57;;;;;;;25.97;44.28;101292.28;5010138;28;20038;-64
2023/06/15 07:16:49;;;;;;;1.55;0.70;;;;;;;25.90;42.74;101283.00;5009461;28;20033;-66
2023/06/15 07:19:14;;;;;;;6.05;0.50;;;;;;;25.99;42.32;101279.59;5035819;28;20051;-66
2023/06/15 07:21:40;;;;;;;1.13;0.85;;;;;;;26.01;42.85;101282.66;5020289;28;20521;-65
2023/06/15 07:24:05;;;;;;;1.35;0.60;;;;;;;26.06;43.38;101273.06;5024451;28;20037;-66
2023/06/15 07:26:31;;;;;;;0.73;0.45;;;;;;;26.19;43.05;101282.09;5037521;28;20021;-66
2023/06/15 07:28:56;;;;;;;1.70;0.80;;;;;;;26.43;42.47;101277.69;5027871;28;20048;-66
2023/06/15 07:31:22;;;;;;;0.85;0.60;;;;;;;26.57;41.75;101282.75;5026201;28;20025;-64
2023/06/15 07:33:47;;;;;;;1.08;0.70;;;;;;;26.67;41.75;101287.88;5013056;28;20029;-65
2023/06/15 07:36:13;;;;;;;0.57;0.57;;;;;;;26.86;41.12;101283.28;5035644;28;20063;-65
2023/06/15 07:38:41;;;;;;;0.75;0.68;;;;;;;27.11;40.06;101285.13;5018869;28;20119;-65
2023/06/15 07:41:07;;;;;;;1.88;0.77;;;;;;;27.02;40.35;101287.84;5033844;28;20071;-65
2023/06/15 07:43:35;;;;;;;2.50;0.77;;;;;;;26.95;39.85;101286.09;5038180;28;20033;-66
2023/06/15 07:46:01;;;;;;;0.80;0.60;;;;;;;26.95;41.00;101280.56;5030190;28;20052;-65
2023/06/15 07:48:26;;;;;;;1.30;0.57;;;;;;;27.00;39.73;101279.22;5026913;28;20029;-65
2023/06/15 07:50:52;;;;;;;1.13;0.65;;;;;;;27.11;41.48;101282.34;5016324;28;20435;-64
2023/06/15 07:53:17;;;;;;;0.63;0.50;;;;;;;27.26;39.85;101286.13;5038774;28;20060;-65
2023/06/15 07:55:44;;;;;;;0.60;0.60;;;;;;;27.40;38.60;101285.59;5012907;28;20498;-63
2023/06/15 07:58:10;;;;;;;1.15;0.70;;;;;;;27.69;39.03;101280.50;5019514;28;20029;-66
2023/06/15 08:00:35;;;;;;;0.60;0.55;;;;;;;27.95;38.62;101283.81;5030704;28;20033;-65
2023/06/15 08:03:01;;;;;;;0.70;0.55;;;;;;;27.96;38.79;101282.56;5040583;28;20481;-66
2023/06/15 08:05:26;;;;;;;0.68;0.55;;;;;;;27.80;37.45;101285.59;5018324;28;20040;-68
2023/06/15 08:07:52;;;;;;;0.60;0.60;;;;;;;27.68;38.46;101273.38;5038641;28;20080;-66
2023/06/15 08:10:18;;;;;;;1.23;0.68;;;;;;;27.53;37.55;101284.28;5039824;28;20057;-66
2023/06/15 08:12:43;;;;;;;2.58;0.73;;;;;;;27.28;38.22;101278.13;5013821;28;20030;-67
2023/06/15 08:15:09;;;;;;;0.65;0.45;;;;;;;27.25;37.34;101273.53;5028653;28;20032;-66
2023/06/15 08:17:35;;;;;;;0.40;0.38;;;;;;;27.18;37.26;101274.56;5031895;28;20402;-65
2023/06/15 08:20:05;;;;;;;1.23;0.80;;;;;;;27.15;38.77;101277.47;5013337;28;20030;-66
2023/06/15 08:22:30;;;;;;;1.70;0.63;;;;;;;27.15;37.35;101277.47;5012791;28;20042;-66
2023/06/15 08:24:56;;;;;;;0.88;0.70;;;;;;;27.19;37.92;101275.34;5012312;28;20032;-66
2023/06/15 08:27:21;;;;;;;0.63;0.60;;;;;;;27.24;38.12;101266.44;5020978;28;20038;-65
2023/06/15 08:29:48;;;;;;;0.75;0.60;;;;;;;27.38;37.42;101266.69;5007926;28;20102;-66
2023/06/15 08:32:13;;;;;;;1.20;0.82;;;;;;;27.45;37.21;101274.72;5021525;28;20091;-64
2023/06/15 08:34:41;;;;;;;0.93;0.57;;;;;;;27.51;37.80;101269.34;5013695;28;20038;-66
2023/06/15 08:37:08;;;;;;;0.82;0.70;;;;;;;27.55;37.72;101272.75;5019105;28;20017;-66
2023/06/15 08:39:34;;;;;;;0.60;0.45;;;;;;;27.62;37.74;101275.25;5035261;28;20166;-65
2023/06/15 08:42:01;;;;;;;1.13;0.68;;;;;;;27.64;37.69;101270.03;5019838;28;20034;-65
2023/06/15 08:44:28;;;;;;;1.40;0.73;;;;;;;27.66;37.96;101273.09;5021618;28;20079;-65
2023/06/15 08:46:56;;;;;;;1.10;0.60;;;;;;;27.68;37.66;101263.09;5011724;28;20767;-65
2023/06/15 08:49:26;;;;;;;2.13;1.17;;;;;;;27.66;37.28;101265.56;5024830;28;20045;-65
2023/06/15 08:51:53;;;;;;;0.73;0.73;;;;;;;27.64;36.76;101265.22;5013540;28;20160;-64
2023/06/15 08:54:21;;;;;;;1.52;0.60;;;;;;;27.67;37.89;101266.31;5016279;28;20510;-66
2023/06/15 08:56:47;;;;;;;1.40;0.68;;;;;;;27.71;37.86;101266.19;5042660;28;20033;-64
2023/06/15 08:59:12;;;;;;;3.10;0.50;;;;;;;28.02;36.72;101275.97;5011284;28;20680;-65
2023/06/15 09:01:41;;;;;;;0.80;0.52;;;;;;;28.15;36.36;101273.06;5019091;28;20065;-65
2023/06/15 09:04:07;;;;;;;0.63;0.55;;;;;;;28.24;35.63;101275.84;5022299;28;20387;-64
2023/06/15 09:06:33;;;;;;;0.70;0.50;;;;;;;28.13;35.33;101278.28;5033958;28;20037;-64
2023/06/15 09:08:59;;;;;;;0.40;0.30;;;;;;;28.05;36.21;101274.31;5024548;28;20064;-66
2023/06/15 09:11:24;;;;;;;0.88;0.50;;;;;;;27.93;35.58;101275.94;5021743;28;20076;-65
2023/06/15 09:13:50;;;;;;;0.75;0.68;;;;;;;27.91;36.27;101274.84;5026726;28;20406;-64
2023/06/15 09:16:16;;;;;;;1.00;0.70;;;;;;;27.76;36.45;101271.88;5018195;28;20041;-64
2023/06/15 09:18:51;;;;;;;2.70;0.50;;;;;;;27.65;36.14;101275.09;5022522;28;20063;-66
2023/06/15 09:21:20;;;;;;;0.57;0.52;;;;;;;27.51;36.23;101267.34;5028598;28;20033;-65
2023/06/15 09:23:46;;;;;;;0.90;0.60;;;;;;;27.41;36.34;101285.16;5024110;28;20033;-66
2023/06/15 09:26:22;;;;;;;1.35;0.68;;;;;;;27.31;37.04;101271.72;5030803;28;20069;-66
2023/06/15 09:28:49;;;;;;;1.75;0.47;;;;;;;27.26;36.57;101269.50;5033796;28;20040;-65
2023/06/15 09:31:34;;;;;;;0.50;0.50;;;;;;;27.28;36.86;101267.84;5041689;28;20065;-65
2023/06/15 09:34:01;;;;;;;0.57;0.57;;;;;;;27.16;37.08;101270.72;5017049;28;20110;-66
2023/06/15 09:36:32;;;;;;;1.20;1.02;;;;;;;27.13;36.65;101277.91;5032333;28;20029;-65
2023/06/15 09:38:57;;;;;;;0.50;0.47;;;;;;;27.22;37.14;101271.66;5031717;28;20057;-65
2023/06/15 09:41:23;;;;;;;1.05;0.63;;;;;;;27.21;36.70;101270.13;5032098;28;20154;-66
2023/06/15 09:43:48;;;;;;;3.63;0.80;;;;;;;27.32;36.33;101279.56;5012372;28;20440;-65
2023/06/15 09:46:16;;;;;;;0.70;0.50;;;;;;;27.44;36.77;101278.72;5031820;28;20028;-65
2023/06/15 09:48:46;;;;;;;0.88;0.50;;;;;;;27.49;35.53;101282.88;5022401;28;20125;-65
2023/06/15 09:51:12;;;;;;;2.22;0.70;;;;;;;27.68;36.05;101270.63;5023744;28;20433;-65
2023/06/15 09:53:39;;;;;;;0.75;0.50;;;;;;;27.81;35.42;101271.28;5017492;28;20047;-66
2023/06/15 09:56:05;;;;;;;1.48;0.65;;;;;;;28.04;36.38;101270.75;5033638;28;20061;-66
2023/06/15 09:58:31;;;;;;;1.23;0.70;;;;;;;28.28;36.14;101271.69;5029923;28;20037;-64
2023/06/15 10:00:58;;;;;;;1.85;0.80;;;;;;;28.40;35.56;101254.13;5011280;28;20017;-64
2023/06/15 10:03:25;;;;;;;0.60;0.50;;;;;;;28.73;35.84;101254.28;5027418;28;20167;-65
2023/06/15 10:05:57;;;;;;;1.27;0.60;;;;;;;28.89;33.97;101253.16;5025251;28;20057;-65
2023/06/15 10:08:25;;;;;;;0.77;0.50;;;;;;;29.00;34.37;101259.00;5027314;28;20071;-65
2023/06/15 10:10:51;;;;;;;0.90;0.70;;;;;;;29.15;34.68;101257.16;5032073;28;20029;-65
2023/06/15 10:13:31;;;;;;;0.60;0.60;;;;;;;29.20;34.87;101259.28;5038206;28;20451;-65
2023/06/15 10:15:57;;;;;;;0.73;0.38;;;;;;;29.03;34.38;101266.41;5033867;28;20041;-66
2023/06/15 10:18:25;;;;;;;1.08;0.40;;;;;;;29.01;34.99;101266.88;5022944;28;20040;-65
2023/06/15 10:20:53;;;;;;;0.60;0.43;;;;;;;28.96;34.38;101261.19;5029682;28;20028;-65
2023/06/15 10:23:29;;;;;;;0.50;0.40;;;;;;;28.92;34.97;101260.56;5030348;28;20029;-65
2023/06/15 10:25:55;;;;;;;0.70;0.57;;;;;;;29.06;34.74;101257.91;5031830;28;20037;-66
2023/06/15 10:28:30;;;;;;;1.05;0.63;;;;;;;29.14;34.84;101263.91;5029779;28;20052;-65
2023/06/15 10:31:12;;;;;;;0.95;0.70;;;;;;;28.95;33.90;101257.63;5030136;28;20120;-64
2023/06/15 10:34:26;;;;;;;0.95;0.55;;;;;;;28.75;34.47;101267.69;5023878;28;20052;-64
2023/06/15 10:37:08;;;;;;;0.70;0.45;;;;;;;28.62;34.38;101267.09;4933539;29;20123;-65
2023/06/15 10:39:36;;;;;;;0.80;0.50;;;;;;;28.58;34.56;101260.94;5030653;28;20068;-64
2023/06/15 10:42:11;;;;;;;0.88;0.35;;;;;;;28.44;33.48;101262.28;5027940;28;20048;-64
2023/06/15 10:44:37;;;;;;;0.75;0.45;;;;;;;28.46;33.17;101263.38;5029733;28;20026;-64
2023/06/15 10:47:13;;;;;;;0.60;0.40;;;;;;;28.41;33.82;101252.91;5022733;28;20045;-64
2023/06/15 10:49:52;;;;;;;0.63;0.60;;;;;;;28.55;34.24;101246.00;5024860;28;20647;-65
2023/06/15 10:52:18;;;;;;;0.93;0.60;;;;;;;28.63;34.29;101252.00;5023697;28;20537;-64
2023/06/15 10:54:44;;;;;;;0.80;0.52;;;;;;;28.83;35.10;101244.72;5033061;28;20120;-66
2023/06/15 10:57:15;;;;;;;0.85;0.50;;;;;;;29.13;35.12;101243.72;5031331;28;20041;-66
2023/06/15 10:59:47;;;;;;;8.00;1.80;;;;;;;29.28;34.27;101238.28;5026372;28;20061;-64
2023/06/15 11:02:45;;;;;;;1.65;0.80;;;;;;;29.24;34.16;101243.22;5023957;28;20040;-65
2023/06/15 11:05:12;;;;;;;0.60;0.47;;;;;;;29.21;34.54;101235.84;4978395;28;20037;-64
2023/06/15 11:07:48;;;;;;;0.55;0.40;;;;;;;29.27;34.16;101236.72;5009841;28;20084;-64
2023/06/15 11:10:20;;;;;;;0.52;0.40;;;;;;;29.33;33.16;101229.28;5024009;28;20087;-65
2023/06/15 11:12:47;;;;;;;0.80;0.52;;;;;;;29.38;34.41;101234.22;5020683;28;20498;-64
2023/06/15 11:15:15;;;;;;;0.70;0.57;;;;;;;29.47;34.37;101225.06;5024501;28;20034;-65
2023/06/15 11:18:04;;;;;;;0.50;0.45;;;;;;;29.82;33.67;101221.34;5030832;28;20041;-65
2023/06/15 11:20:54;;;;;;;0.88;0.55;;;;;;;30.06;32.88;101226.88;5028491;28;20399;-65
2023/06/15 11:23:23;;;;;;;0.60;0.60;;;;;;;30.20;32.92;101218.56;5032968;28;20018;-65
2023/06/15 11:25:51;;;;;;;1.00;0.40;;;;;;;30.31;32.93;101236.75;5024275;28;20030;-65
2023/06/15 11:28:24;;;;;;;1.02;0.50;;;;;;;30.54;33.60;101227.56;5016324;28;20044;-66